sensor_id;sensor_type;location;lat;lon;timestamp;pressure;altitude;pressure_sealevel;temperature;humidity
58239;BME280;44037;55.638;37.356;2023-05-20T00:00:40;100163.91;;;9.99;71.39
58239;BME280;44037;55.638;37.356;2023-05-20T00:03:07;100165.56;;;9.95;71.67
58239;BME280;44037;55.638;37.356;2023-05-20T00:05:35;100162.97;;;9.95;72.25
58239;BME280;44037;55.638;37.356;2023-05-20T00:08:04;100168.16;;;9.97;72.24
58239;BME280;44037;55.638;37.356;2023-05-20T00:10:34;100161.25;;;9.97;72.47
58239;BME280;44037;55.638;37.356;2023-05-20T00:13:01;100157.75;;;9.94;72.04
58239;BME280;44037;55.638;37.356;2023-05-20T00:15:29;100158.59;;;9.93;72.21
58239;BME280;44037;55.638;37.356;2023-05-20T00:17:56;100155.13;;;9.92;72.24
58239;BME280;44037;55.638;37.356;2023-05-20T00:20:23;100152.50;;;9.91;72.64
58239;BME280;44037;55.638;37.356;2023-05-20T00:22:50;100158.59;;;9.93;72.45
58239;BME280;44037;55.638;37.356;2023-05-20T00:25:19;100157.72;;;9.92;72.61
58239;BME280;44037;55.638;37.356;2023-05-20T00:27:46;100157.66;;;9.89;72.46
58239;BME280;44037;55.638;37.356;2023-05-20T00:30:14;100160.19;;;9.86;72.61
58239;BME280;44037;55.638;37.356;2023-05-20T00:32:41;100150.72;;;9.87;72.58
58239;BME280;44037;55.638;37.356;2023-05-20T00:35:08;100155.00;;;9.86;72.34
58239;BME280;44037;55.638;37.356;2023-05-20T00:37:36;100162.69;;;9.81;72.60
58239;BME280;44037;55.638;37.356;2023-05-20T00:40:03;100154.84;;;9.78;72.48
58239;BME280;44037;55.638;37.356;2023-05-20T00:42:32;100156.56;;;9.78;72.79
58239;BME280;44037;55.638;37.356;2023-05-20T00:44:59;100160.84;;;9.77;72.79
58239;BME280;44037;55.638;37.356;2023-05-20T00:47:32;100167.75;;;9.75;72.90
58239;BME280;44037;55.638;37.356;2023-05-20T00:49:59;100163.34;;;9.73;72.81
58239;BME280;44037;55.638;37.356;2023-05-20T00:52:31;100167.56;;;9.67;73.05
58239;BME280;44037;55.638;37.356;2023-05-20T00:54:59;100164.91;;;9.64;72.88
58239;BME280;44037;55.638;37.356;2023-05-20T00:57:26;100167.53;;;9.66;73.26
58239;BME280;44037;55.638;37.356;2023-05-20T00:59:55;100172.69;;;9.66;73.05
58239;BME280;44037;55.638;37.356;2023-05-20T01:02:22;100166.66;;;9.65;73.01
58239;BME280;44037;55.638;37.356;2023-05-20T01:04:50;100164.06;;;9.65;72.96
58239;BME280;44037;55.638;37.356;2023-05-20T01:07:18;100167.53;;;9.66;73.37
58239;BME280;44037;55.638;37.356;2023-05-20T01:09:45;100160.75;;;9.71;73.13
58239;BME280;44037;55.638;37.356;2023-05-20T01:12:15;100165.91;;;9.71;73.08
58239;BME280;44037;55.638;37.356;2023-05-20T01:14:47;100166.75;;;9.70;73.16
58239;BME280;44037;55.638;37.356;2023-05-20T01:17:19;100158.97;;;9.68;73.20
58239;BME280;44037;55.638;37.356;2023-05-20T01:19:48;100162.41;;;9.69;73.45
58239;BME280;44037;55.638;37.356;2023-05-20T01:22:15;100166.78;;;9.72;72.98
58239;BME280;44037;55.638;37.356;2023-05-20T01:24:46;100159.91;;;9.72;73.01
58239;BME280;44037;55.638;37.356;2023-05-20T01:27:14;100161.66;;;9.75;73.11
58239;BME280;44037;55.638;37.356;2023-05-20T01:29:42;100165.25;;;9.80;73.13
58239;BME280;44037;55.638;37.356;2023-05-20T01:32:13;100169.59;;;9.81;73.32
58239;BME280;44037;55.638;37.356;2023-05-20T01:34:42;100169.59;;;9.81;73.10
58239;BME280;44037;55.638;37.356;2023-05-20T01:37:10;100172.22;;;9.84;73.04
58239;BME280;44037;55.638;37.356;2023-05-20T01:39:39;100165.28;;;9.83;72.72
58239;BME280;44037;55.638;37.356;2023-05-20T01:42:09;100173.13;;;9.86;72.43
58239;BME280;44037;55.638;37.356;2023-05-20T01:44:37;100174.88;;;9.87;72.83
58239;BME280;44037;55.638;37.356;2023-05-20T01:47:04;100175.78;;;9.89;73.06
58239;BME280;44037;55.638;37.356;2023-05-20T01:49:31;100170.53;;;9.86;72.34
58239;BME280;44037;55.638;37.356;2023-05-20T01:51:59;100173.13;;;9.86;72.72
58239;BME280;44037;55.638;37.356;2023-05-20T01:54:26;100174.91;;;9.89;72.39
58239;BME280;44037;55.638;37.356;2023-05-20T01:56:53;100173.97;;;9.85;72.67
58239;BME280;44037;55.638;37.356;2023-05-20T01:59:21;100182.56;;;9.84;72.70
58239;BME280;44037;55.638;37.356;2023-05-20T02:01:49;100177.38;;;9.84;72.86
58239;BME280;44037;55.638;37.356;2023-05-20T02:04:16;100177.34;;;9.81;72.13
58239;BME280;44037;55.638;37.356;2023-05-20T02:06:44;100179.03;;;9.79;72.52
58239;BME280;44037;55.638;37.356;2023-05-20T02:09:12;100183.38;;;9.81;72.65
58239;BME280;44037;55.638;37.356;2023-05-20T02:11:39;100174.75;;;9.81;72.82
58239;BME280;44037;55.638;37.356;2023-05-20T02:14:06;100186.84;;;9.82;72.60
58239;BME280;44037;55.638;37.356;2023-05-20T02:16:35;100177.34;;;9.81;73.01
58239;BME280;44037;55.638;37.356;2023-05-20T02:19:03;100174.78;;;9.82;72.93
58239;BME280;44037;55.638;37.356;2023-05-20T02:21:30;100180.88;;;9.86;72.76
58239;BME280;44037;55.638;37.356;2023-05-20T02:23:57;100173.22;;;9.91;72.59
58239;BME280;44037;55.638;37.356;2023-05-20T02:26:24;100180.13;;;9.92;72.85
58239;BME280;44037;55.638;37.356;2023-05-20T02:28:51;100180.13;;;9.92;72.84
58239;BME280;44037;55.638;37.356;2023-05-20T02:31:18;100188.81;;;9.94;72.90
58239;BME280;44037;55.638;37.356;2023-05-20T02:33:47;100179.38;;;9.96;72.60
58239;BME280;44037;55.638;37.356;2023-05-20T02:36:14;100170.78;;;9.98;72.93
58239;BME280;44037;55.638;37.356;2023-05-20T02:38:41;100178.63;;;10.02;72.58
58239;BME280;44037;55.638;37.356;2023-05-20T02:41:09;100180.44;;;10.06;72.32
58239;BME280;44037;55.638;37.356;2023-05-20T02:43:36;100180.47;;;10.09;72.57
58239;BME280;44037;55.638;37.356;2023-05-20T02:46:03;100171.06;;;10.12;72.54
58239;BME280;44037;55.638;37.356;2023-05-20T02:48:31;100171.94;;;10.14;72.79
58239;BME280;44037;55.638;37.356;2023-05-20T02:50:59;100169.41;;;10.16;72.74
58239;BME280;44037;55.638;37.356;2023-05-20T02:53:27;100173.88;;;10.25;72.87
58239;BME280;44037;55.638;37.356;2023-05-20T02:55:54;100175.72;;;10.30;72.61
58239;BME280;44037;55.638;37.356;2023-05-20T02:58:21;100166.31;;;10.36;72.62
58239;BME280;44037;55.638;37.356;2023-05-20T03:00:51;100170.81;;;10.43;72.81
58239;BME280;44037;55.638;37.356;2023-05-20T03:03:18;100179.56;;;10.51;72.63
58239;BME280;44037;55.638;37.356;2023-05-20T03:05:45;100171.94;;;10.57;72.42
58239;BME280;44037;55.638;37.356;2023-05-20T03:08:14;100173.75;;;10.63;72.06
58239;BME280;44037;55.638;37.356;2023-05-20T03:10:41;100167.75;;;10.67;72.01
58239;BME280;44037;55.638;37.356;2023-05-20T03:13:08;100168.72;;;10.74;72.17
58239;BME280;44037;55.638;37.356;2023-05-20T03:15:36;100180.06;;;10.81;71.93
58239;BME280;44037;55.638;37.356;2023-05-20T03:18:04;100174.94;;;10.82;71.68
58239;BME280;44037;55.638;37.356;2023-05-20T03:20:31;100175.78;;;10.83;71.77
58239;BME280;44037;55.638;37.356;2023-05-20T03:22:58;100186.25;;;10.87;72.06
58239;BME280;44037;55.638;37.356;2023-05-20T03:25:28;100179.38;;;10.89;71.39
58239;BME280;44037;55.638;37.356;2023-05-20T03:27:55;100182.91;;;10.95;71.69
58239;BME280;44037;55.638;37.356;2023-05-20T03:30:24;100176.97;;;11.02;71.81
58239;BME280;44037;55.638;37.356;2023-05-20T03:32:52;100174.50;;;11.10;71.36
58239;BME280;44037;55.638;37.356;2023-05-20T03:35:19;100176.38;;;11.18;70.93
58239;BME280;44037;55.638;37.356;2023-05-20T03:37:46;100177.34;;;11.25;71.13
58239;BME280;44037;55.638;37.356;2023-05-20T03:40:13;100173.00;;;11.26;70.43
58239;BME280;44037;55.638;37.356;2023-05-20T03:42:42;100180.72;;;11.22;71.40
58239;BME280;44037;55.638;37.356;2023-05-20T03:45:10;100174.69;;;11.22;70.98
58239;BME280;44037;55.638;37.356;2023-05-20T03:47:37;100180.72;;;11.21;71.45
58239;BME280;44037;55.638;37.356;2023-05-20T03:50:05;100178.06;;;11.16;71.84
58239;BME280;44037;55.638;37.356;2023-05-20T03:52:33;100187.53;;;11.14;71.70
58239;BME280;44037;55.638;37.356;2023-05-20T03:55:00;100172.69;;;11.04;71.46
58239;BME280;44037;55.638;37.356;2023-05-20T03:57:28;100179.47;;;10.96;71.93
58239;BME280;44037;55.638;37.356;2023-05-20T03:59:58;100183.72;;;10.92;72.35
58239;BME280;44037;55.638;37.356;2023-05-20T04:02:27;100190.56;;;10.88;72.15
58239;BME280;44037;55.638;37.356;2023-05-20T04:04:54;100172.38;;;10.85;72.12
58239;BME280;44037;55.638;37.356;2023-05-20T04:07:22;100174.16;;;10.88;72.95
58239;BME280;44037;55.638;37.356;2023-05-20T04:09:49;100164.78;;;10.96;72.50
58239;BME280;44037;55.638;37.356;2023-05-20T04:12:16;100164.91;;;11.02;72.67
58239;BME280;44037;55.638;37.356;2023-05-20T04:14:45;100176.19;;;11.06;72.83
58239;BME280;44037;55.638;37.356;2023-05-20T04:17:16;100164.00;;;11.02;73.58
58239;BME280;44037;55.638;37.356;2023-05-20T04:19:43;100174.38;;;11.00;74.12
58239;BME280;44037;55.638;37.356;2023-05-20T04:22:10;100169.38;;;11.14;73.48
58239;BME280;44037;55.638;37.356;2023-05-20T04:24:37;100172.28;;;11.34;74.13
58239;BME280;44037;55.638;37.356;2023-05-20T04:27:05;100171.44;;;11.35;73.11
58239;BME280;44037;55.638;37.356;2023-05-20T04:29:32;100179.88;;;11.24;72.84
58239;BME280;44037;55.638;37.356;2023-05-20T04:31:59;100184.84;;;11.08;75.15
58239;BME280;44037;55.638;37.356;2023-05-20T04:34:30;100174.09;;;10.85;76.34
58239;BME280;44037;55.638;37.356;2023-05-20T04:36:59;100174.81;;;10.76;78.44
58239;BME280;44037;55.638;37.356;2023-05-20T04:39:27;100180.84;;;10.75;79.32
58239;BME280;44037;55.638;37.356;2023-05-20T04:41:54;100170.41;;;10.70;80.44
58239;BME280;44037;55.638;37.356;2023-05-20T04:44:21;100184.28;;;10.74;81.35
58239;BME280;44037;55.638;37.356;2023-05-20T04:46:49;100184.13;;;10.65;81.53
58239;BME280;44037;55.638;37.356;2023-05-20T04:49:16;100190.09;;;10.60;81.86
58239;BME280;44037;55.638;37.356;2023-05-20T04:51:45;100180.63;;;10.61;82.15
58239;BME280;44037;55.638;37.356;2023-05-20T04:54:14;100198.09;;;10.73;82.65
58239;BME280;44037;55.638;37.356;2023-05-20T04:56:42;100198.47;;;10.95;82.10
58239;BME280;44037;55.638;37.356;2023-05-20T04:59:10;100188.50;;;11.19;81.77
58239;BME280;44037;55.638;37.356;2023-05-20T05:01:37;100181.88;;;11.40;80.85
58239;BME280;44037;55.638;37.356;2023-05-20T05:04:04;100179.59;;;11.65;80.12
58239;BME280;44037;55.638;37.356;2023-05-20T05:06:31;100173.84;;;11.88;78.68
58239;BME280;44037;55.638;37.356;2023-05-20T05:09:00;100176.56;;;11.97;78.22
58239;BME280;44037;55.638;37.356;2023-05-20T05:11:27;100160.22;;;12.06;76.88
58239;BME280;44037;55.638;37.356;2023-05-20T05:13:54;100169.03;;;12.20;76.51
58239;BME280;44037;55.638;37.356;2023-05-20T05:16:21;100163.19;;;12.40;77.27
58239;BME280;44037;55.638;37.356;2023-05-20T05:18:49;100164.91;;;12.38;73.38
58239;BME280;44037;55.638;37.356;2023-05-20T05:21:16;100174.38;;;12.31;73.25
58239;BME280;44037;55.638;37.356;2023-05-20T05:23:43;100164.22;;;12.56;75.17
58239;BME280;44037;55.638;37.356;2023-05-20T05:26:12;100166.16;;;12.79;74.28
58239;BME280;44037;55.638;37.356;2023-05-20T05:28:40;100166.09;;;12.74;73.12
58239;BME280;44037;55.638;37.356;2023-05-20T05:31:08;100170.31;;;12.58;75.49
58239;BME280;44037;55.638;37.356;2023-05-20T05:33:35;100170.28;;;12.53;75.84
58239;BME280;44037;55.638;37.356;2023-05-20T05:36:02;100167.47;;;12.36;74.91
58239;BME280;44037;55.638;37.356;2023-05-20T05:38:31;100161.41;;;12.34;76.63
58239;BME280;44037;55.638;37.356;2023-05-20T05:40:58;100151.16;;;12.50;78.36
58239;BME280;44037;55.638;37.356;2023-05-20T05:43:27;100156.59;;;12.76;78.37
58239;BME280;44037;55.638;37.356;2023-05-20T05:45:54;100155.91;;;13.00;77.58
58239;BME280;44037;55.638;37.356;2023-05-20T05:48:21;100162.72;;;12.83;73.09
58239;BME280;44037;55.638;37.356;2023-05-20T05:50:48;100151.38;;;12.73;73.33
58239;BME280;44037;55.638;37.356;2023-05-20T05:53:15;100154.28;;;13.15;76.15
58239;BME280;44037;55.638;37.356;2023-05-20T05:55:44;100164.81;;;13.33;73.50
58239;BME280;44037;55.638;37.356;2023-05-20T05:58:12;100150.94;;;13.34;72.58
58239;BME280;44037;55.638;37.356;2023-05-20T06:00:40;100177.06;;;13.47;72.73
58239;BME280;44037;55.638;37.356;2023-05-20T06:03:07;100176.06;;;13.31;69.92
58239;BME280;44037;55.638;37.356;2023-05-20T06:05:35;100176.00;;;13.21;70.95
58239;BME280;44037;55.638;37.356;2023-05-20T06:08:03;100145.44;;;12.91;69.08
58239;BME280;44037;55.638;37.356;2023-05-20T06:10:30;100149.91;;;13.09;71.33
58239;BME280;44037;55.638;37.356;2023-05-20T06:12:57;100175.22;;;13.33;68.96
58239;BME280;44037;55.638;37.356;2023-05-20T06:15:24;100159.59;;;13.36;69.17
58239;BME280;44037;55.638;37.356;2023-05-20T06:17:53;100155.38;;;13.46;69.62
58239;BME280;44037;55.638;37.356;2023-05-20T06:20:20;100146.81;;;13.71;70.36
58239;BME280;44037;55.638;37.356;2023-05-20T06:22:47;100152.97;;;13.94;70.35
58239;BME280;44037;55.638;37.356;2023-05-20T06:25:15;100173.00;;;14.05;67.93
58239;BME280;44037;55.638;37.356;2023-05-20T06:27:42;100166.88;;;13.98;65.88
58239;BME280;44037;55.638;37.356;2023-05-20T06:30:10;100166.88;;;13.95;66.32
58239;BME280;44037;55.638;37.356;2023-05-20T06:32:37;100169.47;;;14.00;67.04
58239;BME280;44037;55.638;37.356;2023-05-20T06:35:07;100167.72;;;13.88;64.19
58239;BME280;44037;55.638;37.356;2023-05-20T06:37:34;100168.56;;;13.82;65.10
58239;BME280;44037;55.638;37.356;2023-05-20T06:40:01;100162.53;;;13.92;65.97
58239;BME280;44037;55.638;37.356;2023-05-20T06:42:32;100154.69;;;13.94;63.97
58239;BME280;44037;55.638;37.356;2023-05-20T06:44:59;100186.75;;;13.73;63.40
58239;BME280;44037;55.638;37.356;2023-05-20T06:47:26;100171.06;;;13.62;63.75
58239;BME280;44037;55.638;37.356;2023-05-20T06:49:53;100164.97;;;13.55;62.99
58239;BME280;44037;55.638;37.356;2023-05-20T06:52:22;100158.97;;;13.67;64.27
58239;BME280;44037;55.638;37.356;2023-05-20T06:54:49;100163.41;;;13.94;65.75
58239;BME280;44037;55.638;37.356;2023-05-20T06:57:16;100160.88;;;14.15;64.29
58239;BME280;44037;55.638;37.356;2023-05-20T06:59:43;100147.84;;;14.28;63.46
58239;BME280;44037;55.638;37.356;2023-05-20T07:02:11;100151.38;;;14.52;62.46
58239;BME280;44037;55.638;37.356;2023-05-20T07:04:38;100168.81;;;14.69;60.64
58239;BME280;44037;55.638;37.356;2023-05-20T07:07:05;100139.22;;;14.67;60.93
58239;BME280;44037;55.638;37.356;2023-05-20T07:09:33;100136.63;;;14.79;59.92
58239;BME280;44037;55.638;37.356;2023-05-20T07:12:01;100142.72;;;14.97;59.38
58239;BME280;44037;55.638;37.356;2023-05-20T07:14:28;100140.97;;;15.05;59.84
58239;BME280;44037;55.638;37.356;2023-05-20T07:16:55;100138.31;;;15.36;58.87
58239;BME280;44037;55.638;37.356;2023-05-20T07:19:22;100138.25;;;15.53;57.07
58239;BME280;44037;55.638;37.356;2023-05-20T07:21:49;100139.03;;;15.80;56.90
58239;BME280;44037;55.638;37.356;2023-05-20T07:24:16;100143.38;;;15.82;55.36
58239;BME280;44037;55.638;37.356;2023-05-20T07:26:45;100149.44;;;15.94;56.32
58239;BME280;44037;55.638;37.356;2023-05-20T07:29:12;100152.03;;;15.99;54.37
58239;BME280;44037;55.638;37.356;2023-05-20T07:31:39;100156.44;;;15.86;53.56
58239;BME280;44037;55.638;37.356;2023-05-20T07:34:06;100160.06;;;15.43;53.10
58239;BME280;44037;55.638;37.356;2023-05-20T07:36:34;100140.97;;;15.11;53.83
58239;BME280;44037;55.638;37.356;2023-05-20T07:39:02;100146.22;;;14.79;53.98
58239;BME280;44037;55.638;37.356;2023-05-20T07:41:29;100147.94;;;14.72;54.47
58239;BME280;44037;55.638;37.356;2023-05-20T07:43:58;100131.41;;;15.01;54.77
58239;BME280;44037;55.638;37.356;2023-05-20T07:46:25;100134.00;;;15.10;54.53
58239;BME280;44037;55.638;37.356;2023-05-20T07:48:52;100167.06;;;15.20;53.02
58239;BME280;44037;55.638;37.356;2023-05-20T07:51:19;100149.69;;;14.90;52.47
58239;BME280;44037;55.638;37.356;2023-05-20T07:53:46;100150.50;;;14.61;52.52
58239;BME280;44037;55.638;37.356;2023-05-20T07:56:14;100149.63;;;14.51;51.78
58239;BME280;44037;55.638;37.356;2023-05-20T07:58:42;100187.06;;;14.70;52.10
58239;BME280;44037;55.638;37.356;2023-05-20T08:01:11;100126.19;;;14.65;50.37
58239;BME280;44037;55.638;37.356;2023-05-20T08:03:38;100120.97;;;14.65;50.40
58239;BME280;44037;55.638;37.356;2023-05-20T08:06:05;100138.34;;;14.63;49.69
58239;BME280;44037;55.638;37.356;2023-05-20T08:08:32;100139.22;;;14.61;49.35
58239;BME280;44037;55.638;37.356;2023-05-20T08:11:00;100123.59;;;14.93;49.49
58239;BME280;44037;55.638;37.356;2023-05-20T08:13:28;100133.13;;;15.17;48.82
58239;BME280;44037;55.638;37.356;2023-05-20T08:15:56;100115.69;;;15.35;48.79
58239;BME280;44037;55.638;37.356;2023-05-20T08:18:24;100117.41;;;15.38;47.87
58239;BME280;44037;55.638;37.356;2023-05-20T08:20:52;100126.06;;;15.50;47.69
58239;BME280;44037;55.638;37.356;2023-05-20T08:23:19;100122.56;;;15.51;47.87
58239;BME280;44037;55.638;37.356;2023-05-20T08:25:46;100144.34;;;15.57;46.70
58239;BME280;44037;55.638;37.356;2023-05-20T08:28:14;100120.84;;;15.49;46.60
58239;BME280;44037;55.638;37.356;2023-05-20T08:30:41;100126.06;;;15.55;46.28
58239;BME280;44037;55.638;37.356;2023-05-20T08:33:09;100140.00;;;15.48;45.43
58239;BME280;44037;55.638;37.356;2023-05-20T08:35:38;100133.06;;;15.42;45.81
58239;BME280;44037;55.638;37.356;2023-05-20T08:38:06;100130.41;;;15.56;45.66
58239;BME280;44037;55.638;37.356;2023-05-20T08:40:34;100136.41;;;15.75;44.86
58239;BME280;44037;55.638;37.356;2023-05-20T08:43:01;100123.34;;;15.85;44.91
58239;BME280;44037;55.638;37.356;2023-05-20T08:45:31;100134.66;;;15.91;44.75
58239;BME280;44037;55.638;37.356;2023-05-20T08:48:00;100131.19;;;15.75;44.03
58239;BME280;44037;55.638;37.356;2023-05-20T08:50:27;100131.19;;;15.85;44.12
58239;BME280;44037;55.638;37.356;2023-05-20T08:52:55;100128.56;;;15.92;44.06
58239;BME280;44037;55.638;37.356;2023-05-20T08:55:25;100122.38;;;16.07;44.10
58239;BME280;44037;55.638;37.356;2023-05-20T08:57:55;100144.94;;;16.24;43.36
58239;BME280;44037;55.638;37.356;2023-05-20T09:00:23;100128.38;;;16.22;43.37
58239;BME280;44037;55.638;37.356;2023-05-20T09:02:54;100137.09;;;16.18;43.66
58239;BME280;44037;55.638;37.356;2023-05-20T09:05:21;100146.72;;;16.11;43.57
58239;BME280;44037;55.638;37.356;2023-05-20T09:07:48;100157.25;;;15.95;43.86
58239;BME280;44037;55.638;37.356;2023-05-20T09:10:18;100133.78;;;15.81;44.69
58239;BME280;44037;55.638;37.356;2023-05-20T09:12:46;100132.97;;;15.73;44.72
58239;BME280;44037;55.638;37.356;2023-05-20T09:15:13;100127.72;;;15.75;45.19
58239;BME280;44037;55.638;37.356;2023-05-20T09:17:40;100129.41;;;15.82;45.75
58239;BME280;44037;55.638;37.356;2023-05-20T09:20:09;100126.84;;;15.79;45.87
58239;BME280;44037;55.638;37.356;2023-05-20T09:22:38;100140.75;;;15.89;45.81
58239;BME280;44037;55.638;37.356;2023-05-20T09:25:06;100121.50;;;16.05;45.51
58239;BME280;44037;55.638;37.356;2023-05-20T09:27:35;100128.31;;;16.34;45.54
58239;BME280;44037;55.638;37.356;2023-05-20T09:30:05;100120.22;;;16.65;45.51
58239;BME280;44037;55.638;37.356;2023-05-20T09:32:33;100120.88;;;16.95;44.85
58239;BME280;44037;55.638;37.356;2023-05-20T09:35:00;100138.22;;;17.02;44.00
58239;BME280;44037;55.638;37.356;2023-05-20T09:37:30;100132.25;;;16.88;43.59
58239;BME280;44037;55.638;37.356;2023-05-20T09:40:03;100140.22;;;16.71;43.91
58239;BME280;44037;55.638;37.356;2023-05-20T09:42:38;100150.50;;;16.91;44.29
58239;BME280;44037;55.638;37.356;2023-05-20T09:45:08;100139.13;;;17.03;43.89
58239;BME280;44037;55.638;37.356;2023-05-20T09:47:38;100139.13;;;17.00;43.53
58239;BME280;44037;55.638;37.356;2023-05-20T09:50:07;100139.31;;;16.75;43.81
58239;BME280;44037;55.638;37.356;2023-05-20T09:52:36;100158.72;;;16.46;44.02
58239;BME280;44037;55.638;37.356;2023-05-20T09:55:05;100138.81;;;16.26;43.90
58239;BME280;44037;55.638;37.356;2023-05-20T09:57:33;100149.34;;;16.12;44.07
58239;BME280;44037;55.638;37.356;2023-05-20T10:00:08;100153.72;;;16.04;44.76
58239;BME280;44037;55.638;37.356;2023-05-20T10:02:41;100141.50;;;16.12;45.17
58239;BME280;44037;55.638;37.356;2023-05-20T10:05:14;100163.31;;;16.11;44.71
58239;BME280;44037;55.638;37.356;2023-05-20T10:10:47;100139.91;;;15.87;45.21
58239;BME280;44037;55.638;37.356;2023-05-20T10:13:26;100173.00;;;15.88;44.65
58239;BME280;44037;55.638;37.356;2023-05-20T10:16:12;100145.13;;;15.79;45.11
58239;BME280;44037;55.638;37.356;2023-05-20T10:18:54;100140.75;;;15.89;45.64
58239;BME280;44037;55.638;37.356;2023-05-20T10:21:24;100152.06;;;15.89;45.14
58239;BME280;44037;55.638;37.356;2023-05-20T10:23:51;100140.75;;;15.82;45.39
58239;BME280;44037;55.638;37.356;2023-05-20T10:26:18;100144.22;;;15.81;45.72
58239;BME280;44037;55.638;37.356;2023-05-20T10:28:46;100139.00;;;15.92;45.87
58239;BME280;44037;55.638;37.356;2023-05-20T10:31:17;100153.72;;;16.10;45.68
58239;BME280;44037;55.638;37.356;2023-05-20T10:33:45;100145.81;;;16.17;46.05
58239;BME280;44037;55.638;37.356;2023-05-20T10:36:22;100154.59;;;16.06;46.00
58239;BME280;44037;55.638;37.356;2023-05-20T10:38:54;100152.06;;;15.78;46.32
58239;BME280;44037;55.638;37.356;2023-05-20T10:41:23;100160.91;;;15.42;47.31
58239;BME280;44037;55.638;37.356;2023-05-20T10:44:02;100147.94;;;15.09;48.41
58239;BME280;44037;55.638;37.356;2023-05-20T10:46:31;100155.78;;;14.92;49.53
58239;BME280;44037;55.638;37.356;2023-05-20T10:49:01;100151.44;;;14.79;50.00
58239;BME280;44037;55.638;37.356;2023-05-20T10:51:29;100163.59;;;14.72;49.92
58239;BME280;44037;55.638;37.356;2023-05-20T10:53:57;100161.81;;;14.58;48.70
58239;BME280;44037;55.638;37.356;2023-05-20T10:56:25;100174.81;;;14.43;49.29
58239;BME280;44037;55.638;37.356;2023-05-20T10:58:53;100159.19;;;14.38;49.24
58239;BME280;44037;55.638;37.356;2023-05-20T11:01:23;100156.59;;;14.41;49.42
58239;BME280;44037;55.638;37.356;2023-05-20T11:03:53;100163.53;;;14.47;49.95
58239;BME280;44037;55.638;37.356;2023-05-20T11:06:27;100154.00;;;14.54;49.88
58239;BME280;44037;55.638;37.356;2023-05-20T11:08:54;100166.16;;;14.61;49.72
58239;BME280;44037;55.638;37.356;2023-05-20T11:11:22;100153.16;;;14.69;49.56
58239;BME280;44037;55.638;37.356;2023-05-20T11:13:52;100154.91;;;14.73;49.37
58239;BME280;44037;55.638;37.356;2023-05-20T11:16:19;100158.38;;;14.78;49.43
58239;BME280;44037;55.638;37.356;2023-05-20T11:18:48;100152.28;;;14.76;49.73
58239;BME280;44037;55.638;37.356;2023-05-20T11:21:17;100158.38;;;14.84;49.82
58239;BME280;44037;55.638;37.356;2023-05-20T11:23:44;100162.69;;;15.01;49.48
58239;BME280;44037;55.638;37.356;2023-05-20T11:26:11;100149.66;;;15.10;48.86
58239;BME280;44037;55.638;37.356;2023-05-20T11:28:38;100158.34;;;15.23;48.66
58239;BME280;44037;55.638;37.356;2023-05-20T11:31:06;100144.38;;;15.41;48.65
58239;BME280;44037;55.638;37.356;2023-05-20T11:33:33;100153.00;;;15.65;48.42
58239;BME280;44037;55.638;37.356;2023-05-20T11:36:01;100155.53;;;15.96;48.02
58239;BME280;44037;55.638;37.356;2023-05-20T11:38:30;100150.16;;;16.22;46.97
58239;BME280;44037;55.638;37.356;2023-05-20T11:40:57;100151.81;;;16.36;46.28
58239;BME280;44037;55.638;37.356;2023-05-20T11:43:24;100142.16;;;16.46;45.77
58239;BME280;44037;55.638;37.356;2023-05-20T11:45:53;100150.03;;;16.44;45.16
58239;BME280;44037;55.638;37.356;2023-05-20T11:48:20;100144.88;;;16.30;45.27
58239;BME280;44037;55.638;37.356;2023-05-20T11:50:48;100140.63;;;16.15;45.91
58239;BME280;44037;55.638;37.356;2023-05-20T11:53:16;100145.88;;;16.10;45.96
58239;BME280;44037;55.638;37.356;2023-05-20T11:55:47;100140.66;;;16.07;46.04
58239;BME280;44037;55.638;37.356;2023-05-20T11:58:15;100140.59;;;16.17;46.39
58239;BME280;44037;55.638;37.356;2023-05-20T12:00:44;100131.81;;;16.27;46.10
58239;BME280;44037;55.638;37.356;2023-05-20T12:03:11;100144.88;;;16.32;45.65
58239;BME280;44037;55.638;37.356;2023-05-20T12:05:39;100164.88;;;16.36;45.99
58239;BME280;44037;55.638;37.356;2023-05-20T12:08:06;100159.78;;;16.17;46.51
58239;BME280;44037;55.638;37.356;2023-05-20T12:10:34;100165.97;;;15.99;47.30
58239;BME280;44037;55.638;37.356;2023-05-20T12:13:03;100172.13;;;15.78;47.73
58239;BME280;44037;55.638;37.356;2023-05-20T12:15:33;100158.25;;;15.63;48.30
58239;BME280;44037;55.638;37.356;2023-05-20T12:18:01;100161.69;;;15.64;48.53
58239;BME280;44037;55.638;37.356;2023-05-20T12:20:28;100154.75;;;15.64;48.23
58239;BME280;44037;55.638;37.356;2023-05-20T12:22:56;100173.03;;;15.66;47.25
58239;BME280;44037;55.638;37.356;2023-05-20T12:25:24;100154.84;;;15.35;47.08
58239;BME280;44037;55.638;37.356;2023-05-20T12:27:51;100163.56;;;15.18;47.43
58239;BME280;44037;55.638;37.356;2023-05-20T12:30:21;100156.59;;;15.19;47.67
58239;BME280;44037;55.638;37.356;2023-05-20T12:32:50;100160.06;;;15.29;47.75
58239;BME280;44037;55.638;37.356;2023-05-20T12:38:01;100139.19;;;15.32;47.59
58239;BME280;44037;55.638;37.356;2023-05-20T12:40:29;100160.06;;;15.32;47.00
58239;BME280;44037;55.638;37.356;2023-05-20T12:42:56;100148.72;;;15.39;47.37
58239;BME280;44037;55.638;37.356;2023-05-20T12:45:25;100156.53;;;15.50;46.66
58239;BME280;44037;55.638;37.356;2023-05-20T12:47:53;100152.16;;;15.60;46.01
58239;BME280;44037;55.638;37.356;2023-05-20T12:50:21;100151.25;;;15.70;46.15
58239;BME280;44037;55.638;37.356;2023-05-20T12:52:48;100145.13;;;15.79;45.95